Time;durP1;ratioP1;P1;durP2;ratioP2;P2;SDS_P1;SDS_P2;PMS_P1;PMS_P2;Temp;Humidity;BMP_temperature;BMP_pressure;BME280_temperature;BME280_humidity;BME280_pressure;Samples;Min_cycle;Max_cycle;Signal;HPM_P1;HPM_P2
2022/11/28 00:02:12;;;;;;;10.95;6.80;;;9.00;99.90;;;;;;5017168;28;20053;-78
2022/11/28 00:04:37;;;;;;;9.57;6.65;;;8.90;99.90;;;;;;5033685;28;20033;-78
2022/11/28 00:07:03;;;;;;;10.15;6.53;;;9.00;99.90;;;;;;5034033;28;20370;-78
2022/11/28 00:09:29;;;;;;;12.35;7.03;;;9.00;99.90;;;;;;5034015;28;20040;-78
2022/11/28 00:11:55;;;;;;;12.15;7.00;;;8.90;99.90;;;;;;5034726;28;20041;-78
2022/11/28 00:14:20;;;;;;;14.18;7.65;;;8.90;99.90;;;;;;5035592;28;20033;-80
2022/11/28 00:16:46;;;;;;;9.88;6.43;;;9.00;99.90;;;;;;5038057;28;20048;-79
2022/11/28 00:19:13;;;;;;;10.20;6.55;;;9.00;99.90;;;;;;5034886;28;20401;-79
2022/11/28 00:21:38;;;;;;;10.55;6.82;;;9.10;99.90;;;;;;5035494;28;20091;-81
2022/11/28 00:24:05;;;;;;;10.13;6.57;;;9.00;99.90;;;;;;5039882;28;20037;-81
2022/11/28 00:26:33;;;;;;;9.80;6.82;;;9.10;99.90;;;;;;5040861;28;20095;-80
2022/11/28 00:28:59;;;;;;;12.18;7.07;;;9.10;99.90;;;;;;5034431;28;20027;-78
2022/11/28 00:31:31;;;;;;;10.93;6.35;;;9.10;99.90;;;;;;5034332;28;20037;-77
2022/11/28 00:33:58;;;;;;;9.98;6.80;;;9.10;99.90;;;;;;5016719;28;20036;-78
2022/11/28 00:36:24;;;;;;;13.90;6.90;;;9.20;99.90;;;;;;5033223;28;20034;-73
2022/11/28 00:38:50;;;;;;;11.13;6.40;;;9.20;99.90;;;;;;5032278;28;20057;-78
2022/11/28 00:41:18;;;;;;;10.52;6.15;;;9.10;99.90;;;;;;5034307;28;20035;-77
2022/11/28 00:43:45;;;;;;;10.70;6.32;;;9.10;99.90;;;;;;5034261;28;20032;-79
2022/11/28 00:46:12;;;;;;;11.18;6.43;;;9.10;99.90;;;;;;5016908;28;20033;-78
2022/11/28 00:48:38;;;;;;;7.72;5.47;;;9.10;99.90;;;;;;5033737;28;20474;-78
2022/11/28 00:51:12;;;;;;;8.27;5.40;;;9.20;99.90;;;;;;5016835;28;20459;-77
2022/11/28 00:53:41;;;;;;;7.07;5.68;;;9.20;99.90;;;;;;5017296;28;20037;-76
2022/11/28 00:56:07;;;;;;;7.63;5.63;;;9.30;99.90;;;;;;5034174;28;20053;-77
2022/11/28 00:58:34;;;;;;;8.23;5.45;;;9.30;99.90;;;;;;5033967;28;20044;-78
2022/11/28 01:01:05;;;;;;;7.60;5.72;;;9.30;99.90;;;;;;5033925;28;20450;-78
2022/11/28 01:03:31;;;;;;;9.85;6.20;;;9.40;99.90;;;;;;5034311;28;20049;-79
2022/11/28 01:05:57;;;;;;;7.90;5.57;;;9.40;99.90;;;;;;5032670;28;20068;-80
2022/11/28 01:08:22;;;;;;;9.80;5.43;;;9.30;99.90;;;;;;5016611;28;20061;-79
2022/11/28 01:10:48;;;;;;;10.45;5.50;;;9.30;99.90;;;;;;5032449;28;20389;-79
2022/11/28 01:13:14;;;;;;;9.77;5.32;;;9.40;99.90;;;;;;5016185;28;20426;-73
2022/11/28 01:15:41;;;;;;;10.95;5.43;;;9.40;99.90;;;;;;5033309;28;20348;-79
2022/11/28 01:18:06;;;;;;;11.30;4.90;;;9.40;99.90;;;;;;5015706;28;20124;-75
2022/11/28 01:20:32;;;;;;;6.85;4.85;;;9.40;99.90;;;;;;5034180;28;20448;-75
2022/11/28 01:22:58;;;;;;;9.07;4.65;;;9.40;99.90;;;;;;5016030;28;20029;-80
2022/11/28 01:25:24;;;;;;;7.20;4.50;;;9.40;99.90;;;;;;5032324;28;20143;-80
2022/11/28 01:27:49;;;;;;;7.32;4.78;;;9.50;99.90;;;;;;5033265;28;20034;-80
2022/11/28 01:30:15;;;;;;;7.13;5.05;;;9.50;99.90;;;;;;5015788;28;20435;-80
2022/11/28 01:32:41;;;;;;;6.68;4.50;;;9.40;99.90;;;;;;5032285;28;20033;-81
2022/11/28 01:35:07;;;;;;;7.13;4.95;;;9.50;99.90;;;;;;5015815;28;20090;-80
2022/11/28 01:37:32;;;;;;;6.38;4.70;;;9.50;99.90;;;;;;5015494;28;20033;-79
2022/11/28 01:39:58;;;;;;;7.57;4.35;;;9.50;99.90;;;;;;5032635;28;20036;-78
2022/11/28 01:42:24;;;;;;;7.28;4.50;;;9.50;99.90;;;;;;5019371;28;20533;-78
2022/11/28 01:44:49;;;;;;;6.03;4.07;;;9.50;99.90;;;;;;5037343;28;20025;-79
2022/11/28 01:47:20;;;;;;;6.88;4.28;;;9.50;99.90;;;;;;5037582;28;20025;-80
2022/11/28 01:49:47;;;;;;;6.47;4.07;;;9.50;99.90;;;;;;5038124;28;20484;-79
2022/11/28 01:52:16;;;;;;;7.97;4.32;;;9.50;99.90;;;;;;5037358;28;20492;-79
2022/11/28 01:54:46;;;;;;;7.78;4.45;;;9.50;99.90;;;;;;5019722;28;20026;-79
2022/11/28 01:57:16;;;;;;;5.40;3.92;;;9.60;99.90;;;;;;5037097;28;20026;-79
2022/11/28 02:00:07;;;;;;;6.40;3.90;;;9.60;99.90;;;;;;5036907;28;20561;-79
2022/11/28 02:02:56;;;;;;;6.07;3.85;;;9.60;99.90;;;;;;5037392;28;20025;-79
2022/11/28 02:05:22;;;;;;;9.80;5.07;;;9.60;99.90;;;;;;5028810;28;20037;-79
2022/11/28 02:07:48;;;;;;;7.15;4.10;;;9.60;99.90;;;;;;5036061;28;20557;-79
2022/11/28 02:10:38;;;;;;;8.55;4.63;;;9.60;99.90;;;;;;5037057;28;20033;-78
2022/11/28 02:13:30;;;;;;;8.77;4.45;;;9.50;99.90;;;;;;5011084;28;20033;-79
2022/11/28 02:16:20;;;;;;;8.00;4.47;;;9.50;99.90;;;;;;5037082;28;20074;-79
2022/11/28 02:19:32;;;;;;;5.18;3.60;;;9.50;99.90;;;;;;5019839;28;20057;-79
2022/11/28 02:22:25;;;;;;;5.68;4.25;;;9.50;99.90;;;;;;5037199;28;20038;-79
2022/11/28 02:25:08;;;;;;;8.50;4.20;;;9.50;99.90;;;;;;5037492;28;20025;-79
2022/11/28 02:28:08;;;;;;;8.10;4.63;;;9.50;99.90;;;;;;5037035;28;20099;-79
2022/11/28 02:30:54;;;;;;;7.10;4.10;;;9.40;99.90;;;;;;5036284;28;20037;-80
2022/11/28 02:33:43;;;;;;;5.80;4.47;;;9.40;99.90;;;;;;5019191;28;20022;-79
2022/11/28 02:36:18;;;;;;;8.13;4.32;;;9.40;99.90;;;;;;5019328;28;20021;-80
2022/11/28 02:39:08;;;;;;;6.72;4.40;;;9.30;99.90;;;;;;5036777;28;20041;-80
2022/11/28 02:41:55;;;;;;;6.22;4.68;;;9.30;99.90;;;;;;5036773;28;20025;-80
2022/11/28 02:44:33;;;;;;;8.32;4.85;;;9.30;99.90;;;;;;5036453;28;20030;-80
2022/11/28 02:47:19;;;;;;;7.68;4.82;;;9.30;99.90;;;;;;5036348;28;20029;-81
2022/11/28 02:49:56;;;;;;;9.88;5.47;;;9.30;99.90;;;;;;5008126;28;20065;-81
2022/11/28 02:52:33;;;;;;;7.75;4.82;;;9.30;99.90;;;;;;5017296;28;20079;-80
2022/11/28 02:54:59;;;;;;;8.57;5.00;;;9.30;99.90;;;;;;5018466;28;20049;-78
2022/11/28 02:57:45;;;;;;;6.88;4.80;;;9.30;99.90;;;;;;5036157;28;20025;-78
2022/11/28 03:00:28;;;;;;;7.53;5.00;;;9.30;99.90;;;;;;5036383;28;20032;-78
2022/11/28 03:03:21;;;;;;;9.80;5.50;;;9.30;99.90;;;;;;5034554;28;20087;-79
2022/11/28 03:05:46;;;;;;;6.43;5.07;;;9.30;99.90;;;;;;5036103;28;20029;-78
2022/11/28 03:08:33;;;;;;;6.85;4.45;;;9.20;99.90;;;;;;5036045;28;20351;-81
2022/11/28 03:11:17;;;;;;;8.27;5.25;;;9.30;99.90;;;;;;5035942;28;20083;-79
2022/11/28 03:13:49;;;;;;;7.68;5.57;;;9.30;99.90;;;;;;5035970;28;20026;-74
2022/11/28 03:16:42;;;;;;;9.30;5.65;;;9.30;99.90;;;;;;5036182;28;20026;-79
2022/11/28 03:19:08;;;;;;;9.32;4.97;;;9.30;99.90;;;;;;5035924;28;20079;-79
2022/11/28 03:22:15;;;;;;;7.43;5.38;;;9.30;99.90;;;;;;5035662;28;20127;-79
2022/11/28 03:24:45;;;;;;;8.60;5.03;;;9.30;99.90;;;;;;5035979;28;20116;-79
2022/11/28 03:27:13;;;;;;;9.30;5.43;;;9.30;99.90;;;;;;5034941;28;20030;-78
2022/11/28 03:29:42;;;;;;;8.70;4.95;;;9.20;99.90;;;;;;5035268;28;20037;-79
2022/11/28 03:32:18;;;;;;;7.80;4.78;;;9.20;99.90;;;;;;5017378;28;20037;-78
2022/11/28 03:34:49;;;;;;;7.82;4.63;;;9.20;99.90;;;;;;5035609;28;20026;-79
2022/11/28 03:37:38;;;;;;;7.88;4.72;;;9.20;99.90;;;;;;5035792;28;20092;-78
2022/11/28 03:40:13;;;;;;;5.22;3.35;;;9.20;99.90;;;;;;5034698;28;20037;-79
2022/11/28 03:42:46;;;;;;;5.65;4.22;;;9.20;99.90;;;;;;5018188;28;20136;-79
2022/11/28 03:45:20;;;;;;;8.52;4.85;;;9.20;99.90;;;;;;5035118;28;20033;-78
2022/11/28 03:47:53;;;;;;;7.25;4.30;;;9.30;99.90;;;;;;5017725;28;20029;-78
2022/11/28 03:50:46;;;;;;;7.88;4.40;;;9.30;99.90;;;;;;5034950;28;20052;-78
2022/11/28 03:53:29;;;;;;;7.53;4.85;;;9.30;99.90;;;;;;5013221;28;20536;-78
2022/11/28 03:56:11;;;;;;;7.28;5.05;;;9.30;99.90;;;;;;5018096;28;20462;-78
2022/11/28 03:58:48;;;;;;;7.13;5.20;;;9.40;99.90;;;;;;5035138;28;20041;-79
2022/11/28 04:01:32;;;;;;;6.15;5.53;;;9.40;99.90;;;;;;5034729;28;20494;-78
2022/11/28 04:04:26;;;;;;;6.45;5.50;;;9.40;99.90;;;;;;5033939;28;20029;-78
2022/11/28 04:07:29;;;;;;;9.93;6.47;;;9.50;99.90;;;;;;5034446;28;20529;-78
2022/11/28 04:10:08;;;;;;;8.95;6.22;;;9.40;99.90;;;;;;5034928;28;20101;-78
2022/11/28 04:12:47;;;;;;;7.32;5.65;;;9.40;99.90;;;;;;5017271;28;20092;-78
2022/11/28 04:15:36;;;;;;;6.60;5.30;;;9.50;99.90;;;;;;5034781;28;20032;-79
2022/11/28 04:18:08;;;;;;;7.75;6.18;;;9.50;99.90;;;;;;5035066;28;20029;-79
2022/11/28 04:20:51;;;;;;;8.02;6.18;;;9.50;99.90;;;;;;5033303;28;20040;-79
2022/11/28 04:23:18;;;;;;;;;;;9.50;99.90;;;;;;5034753;28;20022;-79
2022/11/28 04:25:54;;;;;;;7.90;5.65;;;9.50;99.90;;;;;;5034857;28;19905;-79
2022/11/28 04:28:24;;;;;;;8.45;6.50;;;9.50;99.90;;;;;;5034565;28;20025;-78
2022/11/28 04:30:51;;;;;;;7.95;5.95;;;9.40;99.90;;;;;;5034265;28;20046;-79
2022/11/28 04:33:21;;;;;;;7.95;5.80;;;9.40;99.90;;;;;;5034560;28;20032;-78
2022/11/28 04:35:50;;;;;;;9.98;6.32;;;9.40;99.90;;;;;;5033854;28;20033;-78
2022/11/28 04:38:17;;;;;;;9.07;6.07;;;9.50;99.90;;;;;;5031919;28;20057;-78
2022/11/28 04:40:49;;;;;;;8.00;5.93;;;9.40;99.90;;;;;;5034506;28;20035;-78
2022/11/28 04:43:24;;;;;;;9.75;5.78;;;9.40;99.90;;;;;;5017104;28;20029;-79
2022/11/28 04:45:54;;;;;;;7.93;5.82;;;9.40;99.90;;;;;;5034194;28;20040;-77
2022/11/28 04:48:20;;;;;;;7.63;5.47;;;9.40;99.90;;;;;;5033849;28;20079;-79
2022/11/28 04:51:00;;;;;;;8.18;5.68;;;9.40;99.90;;;;;;5033728;28;20042;-80
2022/11/28 04:53:38;;;;;;;8.05;5.68;;;9.40;99.90;;;;;;5033791;28;20470;-80
2022/11/28 04:56:10;;;;;;;7.85;6.07;;;9.40;99.90;;;;;;5034389;28;20026;-80
2022/11/28 04:58:43;;;;;;;6.13;5.22;;;9.40;99.90;;;;;;5033959;28;20057;-80
2022/11/28 05:01:14;;;;;;;8.00;6.15;;;9.40;99.90;;;;;;5034125;28;20079;-80
2022/11/28 05:03:40;;;;;;;9.15;5.85;;;9.40;99.90;;;;;;5034249;28;20017;-81
2022/11/28 05:06:07;;;;;;;7.57;5.78;;;9.40;99.90;;;;;;5016735;28;20462;-81
2022/11/28 05:08:33;;;;;;;6.47;5.70;;;9.40;99.90;;;;;;5032631;28;20064;-80
2022/11/28 05:10:59;;;;;;;7.72;5.75;;;9.40;99.90;;;;;;5033785;28;20466;-80
2022/11/28 05:13:24;;;;;;;6.35;5.20;;;9.40;99.90;;;;;;5032365;28;20029;-80
2022/11/28 05:15:50;;;;;;;7.88;5.93;;;9.50;99.90;;;;;;5031729;28;20107;-79
2022/11/28 05:18:15;;;;;;;6.88;5.80;;;9.50;99.90;;;;;;5032495;28;20029;-79
2022/11/28 05:20:42;;;;;;;6.35;4.40;;;9.50;99.90;;;;;;5033675;28;20042;-80
2022/11/28 05:23:07;;;;;;;8.45;5.47;;;9.50;99.90;;;;;;5032210;28;20025;-80
2022/11/28 05:25:33;;;;;;;9.32;5.80;;;9.50;99.90;;;;;;5032356;28;20030;-80
2022/11/28 05:27:59;;;;;;;6.75;5.20;;;9.50;99.90;;;;;;5033635;28;20061;-80
2022/11/28 05:30:24;;;;;;;7.18;5.45;;;9.40;99.90;;;;;;5033040;28;20417;-80
2022/11/28 05:32:50;;;;;;;6.03;5.38;;;9.50;99.90;;;;;;5015852;28;20037;-80
2022/11/28 05:35:16;;;;;;;6.78;5.05;;;9.50;99.90;;;;;;5033591;28;20425;-80
2022/11/28 05:37:41;;;;;;;6.70;5.40;;;9.40;99.90;;;;;;5015687;28;20055;-81
2022/11/28 05:40:07;;;;;;;6.60;5.10;;;9.40;99.90;;;;;;5032904;28;20110;-81
2022/11/28 05:42:34;;;;;;;6.85;4.63;;;9.40;99.90;;;;;;5033459;28;20109;-81
2022/11/28 05:45:00;;;;;;;6.70;4.80;;;9.50;99.90;;;;;;5033556;28;20021;-81
2022/11/28 05:47:28;;;;;;;6.18;4.55;;;9.50;99.90;;;;;;5033446;28;20052;-81
2022/11/28 05:49:54;;;;;;;6.65;4.72;;;9.40;99.90;;;;;;5016021;28;20034;-81
2022/11/28 05:52:19;;;;;;;6.15;4.63;;;9.50;99.90;;;;;;5032891;28;20048;-80
2022/11/28 05:54:45;;;;;;;5.63;4.93;;;9.50;99.90;;;;;;5042344;28;20028;-82
2022/11/28 05:57:10;;;;;;;5.70;4.72;;;9.50;99.90;;;;;;5035120;28;20029;-81
2022/11/28 05:59:36;;;;;;;4.65;4.00;;;9.50;99.90;;;;;;5033638;28;20041;-80
2022/11/28 06:02:02;;;;;;;6.80;4.70;;;9.50;99.90;;;;;;5015692;28;20458;-79
2022/11/28 06:04:27;;;;;;;4.85;4.28;;;9.40;99.90;;;;;;5032181;28;20096;-80
2022/11/28 06:06:53;;;;;;;4.93;4.18;;;9.50;99.90;;;;;;5031965;28;20188;-79
2022/11/28 06:09:19;;;;;;;4.95;4.18;;;9.50;99.90;;;;;;5033102;28;20036;-80
2022/11/28 06:11:44;;;;;;;4.85;4.22;;;9.50;99.90;;;;;;5032022;28;20068;-80
2022/11/28 06:14:10;;;;;;;4.95;4.13;;;9.50;99.90;;;;;;5032267;28;20466;-80
2022/11/28 06:16:36;;;;;;;5.03;4.53;;;9.40;99.90;;;;;;5033599;28;20576;-80
2022/11/28 06:19:04;;;;;;;6.50;3.90;;;9.40;99.90;;;;;;5032163;28;20380;-80
2022/11/28 06:21:30;;;;;;;4.43;4.03;;;9.50;99.90;;;;;;5033248;28;20033;-80
2022/11/28 06:23:58;;;;;;;4.82;4.20;;;9.50;99.90;;;;;;5032056;28;20030;-81
2022/11/28 06:26:25;;;;;;;8.85;4.32;;;9.60;99.90;;;;;;5031976;28;20040;-80
2022/11/28 06:28:51;;;;;;;5.55;4.25;;;9.50;99.90;;;;;;5036823;28;20112;-78
2022/11/28 06:31:19;;;;;;;4.38;3.83;;;9.50;99.90;;;;;;5036425;28;20508;-78
2022/11/28 06:33:45;;;;;;;4.10;3.30;;;9.60;99.90;;;;;;5037098;28;20029;-75
2022/11/28 06:36:12;;;;;;;3.75;3.35;;;9.60;99.90;;;;;;5036033;28;20026;-74
2022/11/28 06:38:38;;;;;;;7.10;4.78;;;9.70;99.90;;;;;;5035360;28;20057;-75
2022/11/28 06:41:07;;;;;;;7.75;4.05;;;9.70;99.90;;;;;;5035469;28;20036;-74
2022/11/28 06:43:33;;;;;;;4.38;3.53;;;9.80;99.90;;;;;;5036360;28;20557;-75
2022/11/28 06:45:59;;;;;;;3.90;3.45;;;9.80;99.90;;;;;;5036265;28;20057;-72
2022/11/28 06:48:25;;;;;;;5.35;3.63;;;9.80;99.90;;;;;;5035429;28;20061;-75
2022/11/28 06:50:51;;;;;;;3.42;3.00;;;9.90;99.90;;;;;;5036320;28;20034;-73
2022/11/28 06:53:18;;;;;;;4.15;3.78;;;9.90;99.90;;;;;;5036654;28;20029;-73
2022/11/28 06:55:44;;;;;;;5.97;4.68;;;9.90;99.90;;;;;;5036393;28;20110;-75
2022/11/28 06:58:10;;;;;;;4.10;3.55;;;9.90;99.90;;;;;;5018442;28;20476;-73
2022/11/28 07:00:36;;;;;;;3.90;3.20;;;9.90;99.90;;;;;;5036216;28;20022;-74
2022/11/28 07:03:02;;;;;;;4.43;3.22;;;9.90;99.90;;;;;;5018617;28;20465;-73
2022/11/28 07:05:29;;;;;;;5.45;3.80;;;9.90;99.90;;;;;;5035016;28;20030;-74
2022/11/28 07:07:58;;;;;;;4.55;3.92;;;9.90;99.90;;;;;;5036379;28;20032;-75
2022/11/28 07:10:24;;;;;;;5.28;3.40;;;9.90;99.90;;;;;;5036069;28;20037;-75
2022/11/28 07:12:55;;;;;;;3.25;2.95;;;10.00;99.90;;;;;;5035947;28;20052;-76
2022/11/28 07:15:20;;;;;;;3.97;3.40;;;10.00;99.90;;;;;;5035768;28;20021;-75
2022/11/28 07:17:46;;;;;;;3.95;3.15;;;10.10;99.90;;;;;;5034681;28;20033;-76
2022/11/28 07:20:12;;;;;;;3.75;2.90;;;10.10;99.90;;;;;;5035450;28;20048;-77
2022/11/28 07:22:38;;;;;;;6.75;3.53;;;10.10;99.90;;;;;;5034200;28;20067;-78
2022/11/28 07:25:04;;;;;;;3.92;3.53;;;10.10;99.90;;;;;;5034305;28;20029;-77
2022/11/28 07:27:29;;;;;;;5.05;3.50;;;10.20;99.90;;;;;;5034727;28;20033;-78
2022/11/28 07:29:55;;;;;;;5.63;3.95;;;10.20;99.90;;;;;;5034632;28;20033;-78
2022/11/28 07:32:21;;;;;;;3.83;3.28;;;10.20;99.90;;;;;;5017875;28;20128;-81
2022/11/28 07:34:46;;;;;;;3.25;2.63;;;10.20;99.90;;;;;;5034406;28;20043;-74
2022/11/28 07:37:12;;;;;;;3.72;3.00;;;10.20;99.90;;;;;;5033960;28;20021;-76
2022/11/28 07:39:38;;;;;;;3.95;2.70;;;10.20;99.90;;;;;;5035477;28;20053;-79
2022/11/28 07:42:03;;;;;;;2.83;2.50;;;10.30;99.90;;;;;;5034761;28;20382;-79
2022/11/28 07:44:29;;;;;;;3.75;3.20;;;10.30;99.90;;;;;;5035795;28;20095;-79
2022/11/28 07:46:55;;;;;;;3.95;3.17;;;10.40;99.90;;;;;;5034577;28;20044;-79
2022/11/28 07:49:20;;;;;;;3.60;3.30;;;10.40;99.90;;;;;;5035706;28;20030;-75
2022/11/28 07:51:46;;;;;;;3.50;3.20;;;10.40;99.90;;;;;;5033874;28;20065;-79
2022/11/28 07:54:12;;;;;;;4.50;3.15;;;10.40;99.90;;;;;;5035228;28;20444;-79
2022/11/28 07:56:38;;;;;;;5.32;3.13;;;10.40;99.90;;;;;;5034029;28;20462;-80
2022/11/28 07:59:04;;;;;;;4.97;3.45;;;10.40;99.90;;;;;;5035299;28;20404;-79
2022/11/28 08:01:34;;;;;;;3.90;3.00;;;10.40;99.90;;;;;;5035124;28;20025;-74
2022/11/28 08:04:01;;;;;;;3.70;3.40;;;10.40;99.90;;;;;;5034516;28;20025;-78
2022/11/28 08:06:29;;;;;;;3.92;3.53;;;10.40;99.90;;;;;;5034983;28;20034;-79
2022/11/28 08:08:58;;;;;;;3.45;3.00;;;10.40;99.90;;;;;;5017205;28;20087;-74
2022/11/28 08:11:27;;;;;;;6.25;3.92;;;10.40;99.90;;;;;;5034717;28;20033;-79
2022/11/28 08:13:52;;;;;;;5.80;3.90;;;10.40;99.90;;;;;;5016905;28;20033;-81
2022/11/28 08:16:20;;;;;;;4.47;3.88;;;10.40;99.90;;;;;;5016833;28;20040;-80
2022/11/28 08:18:47;;;;;;;3.45;3.13;;;10.40;99.90;;;;;;5017152;28;20048;-79
2022/11/28 08:21:18;;;;;;;4.00;3.35;;;10.40;99.90;;;;;;5016918;28;20034;-80
2022/11/28 08:23:44;;;;;;;5.10;2.78;;;10.40;99.90;;;;;;5034724;28;20033;-80
2022/11/28 08:26:12;;;;;;;5.10;3.25;;;10.40;99.90;;;;;;5016925;28;20025;-79
2022/11/28 08:28:38;;;;;;;5.07;3.83;;;10.50;99.90;;;;;;5017260;28;20381;-80
2022/11/28 08:31:13;;;;;;;3.60;3.30;;;10.50;99.90;;;;;;5033277;28;20037;-79
2022/11/28 08:33:39;;;;;;;4.15;3.50;;;10.50;99.90;;;;;;5034071;28;20120;-74
2022/11/28 08:36:07;;;;;;;3.60;3.30;;;10.50;99.90;;;;;;5034204;28;20026;-74
2022/11/28 08:38:32;;;;;;;4.95;2.92;;;10.50;99.90;;;;;;5029294;28;20054;-75
2022/11/28 08:41:06;;;;;;;4.80;3.58;;;10.50;99.90;;;;;;5014438;28;20096;-74
2022/11/28 08:43:33;;;;;;;5.00;3.67;;;10.50;99.90;;;;;;5014365;28;20034;-75
2022/11/28 08:45:59;;;;;;;3.83;3.03;;;10.50;99.90;;;;;;4997466;28;20125;-76
2022/11/28 08:48:25;;;;;;;4.75;3.67;;;10.60;99.90;;;;;;5012977;28;20114;-73
2022/11/28 08:50:51;;;;;;;4.18;3.78;;;10.60;99.90;;;;;;5012937;28;20037;-73
2022/11/28 08:53:16;;;;;;;3.45;3.05;;;10.60;99.90;;;;;;5014018;28;20037;-73
2022/11/28 08:55:43;;;;;;;4.20;3.20;;;10.60;99.90;;;;;;5014187;28;20463;-73
2022/11/28 08:58:10;;;;;;;5.75;4.03;;;10.70;99.90;;;;;;4996754;28;20030;-74
2022/11/28 09:00:36;;;;;;;4.53;3.55;;;10.80;99.90;;;;;;5013235;28;20385;-74
2022/11/28 09:03:01;;;;;;;5.18;3.60;;;10.80;99.90;;;;;;5013892;28;20124;-75
2022/11/28 09:05:28;;;;;;;5.40;4.40;;;10.80;99.90;;;;;;4996165;28;20162;-74
2022/11/28 09:07:54;;;;;;;6.55;4.32;;;10.80;99.90;;;;;;5013944;28;20503;-74
2022/11/28 09:10:21;;;;;;;3.28;2.70;;;10.90;99.90;;;;;;5013033;28;20033;-73
2022/11/28 09:12:47;;;;;;;6.68;4.13;;;10.90;99.90;;;;;;5014019;28;20509;-73
2022/11/28 09:15:13;;;;;;;5.50;4.13;;;11.00;99.90;;;;;;5012865;28;20141;-74
2022/11/28 09:17:39;;;;;;;4.50;3.83;;;11.00;99.90;;;;;;5013257;28;20462;-73
2022/11/28 09:20:05;;;;;;;4.90;4.22;;;11.10;99.90;;;;;;5013185;28;20061;-78
2022/11/28 09:22:31;;;;;;;4.78;3.95;;;11.00;99.90;;;;;;5012578;28;20033;-78
2022/11/28 09:24:57;;;;;;;5.13;4.13;;;11.00;99.90;;;;;;5013725;28;20382;-78
2022/11/28 09:27:23;;;;;;;7.43;4.07;;;11.00;99.90;;;;;;5014037;28;20038;-78
2022/11/28 09:29:48;;;;;;;4.43;3.90;;;11.00;99.90;;;;;;5012593;28;20034;-78
2022/11/28 09:32:14;;;;;;;5.18;4.15;;;11.00;99.90;;;;;;5013539;28;20038;-78
2022/11/28 09:34:40;;;;;;;5.80;4.78;;;10.90;99.90;;;;;;5013796;28;20410;-79
2022/11/28 09:37:05;;;;;;;5.22;4.65;;;10.90;99.90;;;;;;5013793;28;20066;-78
2022/11/28 09:39:31;;;;;;;6.43;4.97;;;10.90;99.90;;;;;;5012074;28;20601;-78
2022/11/28 09:42:35;;;;;;;6.78;4.00;;;10.80;99.90;;;;;;5013772;28;20374;-77
2022/11/28 09:45:08;;;;;;;4.18;3.65;;;10.80;99.90;;;;;;5013273;28;20480;-77
2022/11/28 09:47:36;;;;;;;8.95;5.03;;;10.90;99.90;;;;;;5012500;28;20429;-78
2022/11/28 09:50:09;;;;;;;6.13;4.65;;;10.90;99.90;;;;;;5011943;28;20477;-78
2022/11/28 09:52:50;;;;;;;;;;;10.90;99.90;;;;;;5014344;28;20038;-78
2022/11/28 09:55:33;;;;;;;4.60;4.00;;;10.90;99.90;;;;;;5013195;28;20004;-78
2022/11/28 09:58:04;;;;;;;6.22;4.35;;;10.90;99.90;;;;;;5013733;28;20026;-79
2022/11/28 10:00:41;;;;;;;5.63;4.20;;;10.90;99.90;;;;;;5013654;28;20064;-78
2022/11/28 10:03:07;;;;;;;3.50;3.17;;;10.90;99.90;;;;;;5016770;28;20140;-78
2022/11/28 10:05:41;;;;;;;6.60;3.95;;;10.90;99.90;;;;;;5017493;28;20068;-78
2022/11/28 10:08:19;;;;;;;3.95;3.58;;;10.90;99.90;;;;;;5016165;28;20037;-78
2022/11/28 10:11:08;;;;;;;5.25;4.63;;;10.80;99.90;;;;;;5017376;28;20109;-78
2022/11/28 10:14:08;;;;;;;4.85;4.32;;;10.90;99.90;;;;;;5016700;28;20044;-78
2022/11/28 10:16:55;;;;;;;4.43;3.85;;;10.90;99.90;;;;;;5017665;28;20057;-78
2022/11/28 10:19:50;;;;;;;4.32;3.75;;;10.90;99.90;;;;;;5017158;28;20058;-78
2022/11/28 10:22:21;;;;;;;4.22;3.80;;;10.90;99.90;;;;;;5011931;28;20042;-77
2022/11/28 10:24:51;;;;;;;4.45;3.45;;;10.90;99.90;;;;;;5016228;28;20034;-78
2022/11/28 10:27:17;;;;;;;3.97;3.20;;;11.00;99.90;;;;;;5016563;28;20064;-77
2022/11/28 10:29:55;;;;;;;3.90;3.35;;;11.00;99.90;;;;;;5015667;28;20463;-77
2022/11/28 10:32:30;;;;;;;4.72;3.50;;;11.00;99.90;;;;;;5015599;28;20033;-77
2022/11/28 10:34:58;;;;;;;3.65;3.35;;;11.00;99.90;;;;;;5017164;28;20033;-77
2022/11/28 10:37:31;;;;;;;3.65;3.00;;;11.00;99.90;;;;;;5016060;28;20025;-77
2022/11/28 10:40:15;;;;;;;;;;;11.00;99.90;;;;;;5015870;28;20049;-77
2022/11/28 10:42:57;;;;;;;3.47;2.55;;;11.00;99.90;;;;;;5017100;28;19905;-77
2022/11/28 10:45:29;;;;;;;3.38;3.08;;;11.00;99.90;;;;;;5016138;28;20064;-78
2022/11/28 10:48:27;;;;;;;5.90;3.67;;;11.10;99.90;;;;;;5016654;28;20149;-77
2022/11/28 10:51:05;;;;;;;8.40;4.10;;;11.10;99.90;;;;;;5017181;28;20096;-78
2022/11/28 10:53:40;;;;;;;4.32;3.50;;;11.10;99.90;;;;;;5016641;28;20025;-77
2022/11/28 10:56:24;;;;;;;3.33;2.78;;;11.10;99.90;;;;;;5016597;28;20049;-77
2022/11/28 10:59:25;;;;;;;4.07;3.65;;;11.10;99.90;;;;;;5016689;28;20046;-77
2022/11/28 11:01:52;;;;;;;6.35;3.97;;;11.20;99.90;;;;;;5016495;28;20040;-77
2022/11/28 11:04:21;;;;;;;5.28;3.92;;;11.20;99.90;;;;;;5015098;28;20026;-77
2022/11/28 11:07:24;;;;;;;7.13;3.90;;;11.10;99.90;;;;;;5015221;28;20101;-77
2022/11/28 11:09:50;;;;;;;7.22;4.70;;;11.10;99.90;;;;;;5028374;28;20030;-76
2022/11/28 11:12:25;;;;;;;5.72;4.47;;;11.20;99.90;;;;;;5014694;28;20050;-76
2022/11/28 11:14:51;;;;;;;8.32;5.75;;;11.20;99.90;;;;;;5015406;28;20033;-76
2022/11/28 11:17:43;;;;;;;4.93;3.72;;;11.20;99.90;;;;;;5014631;28;20029;-77
2022/11/28 11:20:36;;;;;;;5.22;4.00;;;11.20;99.90;;;;;;5011549;28;20050;-75
2022/11/28 11:23:11;;;;;;;7.20;5.05;;;11.30;99.90;;;;;;5016295;28;20025;-76
2022/11/28 11:25:46;;;;;;;7.20;5.70;;;11.30;99.90;;;;;;5016220;28;20053;-76
2022/11/28 11:28:25;;;;;;;5.57;4.97;;;11.20;99.90;;;;;;5015958;28;20030;-77
2022/11/28 11:31:01;;;;;;;9.00;5.50;;;11.20;99.90;;;;;;5015783;28;20508;-74
2022/11/28 11:33:33;;;;;;;8.10;6.05;;;11.30;99.90;;;;;;5016075;28;20030;-75
2022/11/28 11:35:59;;;;;;;9.95;5.57;;;11.30;99.90;;;;;;5015951;28;20029;-75
2022/11/28 11:38:29;;;;;;;8.48;5.63;;;11.30;99.90;;;;;;5018585;28;20128;-75
2022/11/28 11:40:55;;;;;;;7.82;6.13;;;11.30;99.90;;;;;;5018107;28;20120;-77
2022/11/28 11:43:27;;;;;;;8.80;6.00;;;11.30;99.90;;;;;;5035677;28;20028;-74
2022/11/28 11:46:06;;;;;;;8.23;5.80;;;11.30;99.90;;;;;;5033767;28;20458;-75
2022/11/28 11:48:39;;;;;;;7.43;5.32;;;11.30;99.90;;;;;;5035011;28;20433;-76
2022/11/28 11:51:07;;;;;;;8.85;6.30;;;11.30;99.90;;;;;;5035231;28;20083;-76
2022/11/28 11:53:32;;;;;;;7.03;5.85;;;11.30;99.90;;;;;;5017217;28;20056;-76
2022/11/28 11:56:02;;;;;;;10.20;6.95;;;11.30;99.90;;;;;;5034988;28;20462;-76
2022/11/28 11:58:38;;;;;;;11.73;7.40;;;11.30;99.90;;;;;;5035260;28;20116;-76
2022/11/28 12:01:05;;;;;;;8.98;6.97;;;11.30;99.90;;;;;;5035093;28;20037;-76
2022/11/28 12:03:55;;;;;;;11.10;6.80;;;11.30;99.90;;;;;;5033438;28;20472;-76
2022/11/28 12:06:27;;;;;;;10.10;6.05;;;11.30;99.90;;;;;;5017067;28;20480;-73
2022/11/28 12:09:12;;;;;;;8.38;6.68;;;11.30;99.90;;;;;;5034025;28;20034;-72
2022/11/28 12:11:42;;;;;;;9.00;5.70;;;11.30;99.90;;;;;;5034854;28;20099;-71
2022/11/28 12:14:24;;;;;;;7.43;5.57;;;11.30;99.90;;;;;;5016834;28;20095;-76
2022/11/28 12:16:50;;;;;;;9.05;6.78;;;11.30;99.90;;;;;;5017216;28;20029;-75
2022/11/28 12:19:27;;;;;;;9.93;7.28;;;11.30;99.90;;;;;;5034831;28;20052;-75
2022/11/28 12:22:16;;;;;;;9.18;7.43;;;11.30;99.90;;;;;;5035119;28;20085;-77
2022/11/28 12:25:07;;;;;;;8.48;6.55;;;11.30;99.90;;;;;;5034773;28;20029;-77
2022/11/28 12:28:03;;;;;;;10.50;6.65;;;11.30;99.90;;;;;;5033404;28;20033;-77
2022/11/28 12:31:07;;;;;;;9.18;6.85;;;11.30;99.90;;;;;;5034329;28;20484;-76
2022/11/28 12:34:06;;;;;;;11.02;8.23;;;11.30;99.90;;;;;;5034262;28;20116;-76
2022/11/28 12:36:58;;;;;;;10.02;8.70;;;11.30;99.90;;;;;;5033948;28;20029;-76
2022/11/28 12:39:57;;;;;;;11.77;8.10;;;11.30;99.90;;;;;;5016382;28;20053;-77
2022/11/28 12:42:32;;;;;;;9.68;8.02;;;11.30;99.90;;;;;;5034051;28;20500;-77
2022/11/28 12:45:17;;;;;;;9.50;7.10;;;11.30;99.90;;;;;;5034285;28;20044;-77
2022/11/28 12:47:56;;;;;;;11.70;8.10;;;11.30;99.90;;;;;;5034220;28;20074;-76
2022/11/28 12:50:49;;;;;;;9.35;7.80;;;11.30;99.90;;;;;;5016891;28;20492;-75
2022/11/28 12:53:38;;;;;;;11.90;9.00;;;11.30;99.90;;;;;;5034456;28;20479;-76
2022/11/28 12:56:09;;;;;;;10.93;8.63;;;11.30;99.90;;;;;;5004612;28;20037;-77
2022/11/28 12:58:56;;;;;;;10.18;7.18;;;11.30;99.90;;;;;;5033944;28;20057;-77
2022/11/28 13:02:00;;;;;;;10.73;7.95;;;11.30;99.90;;;;;;5033931;28;20030;-77
2022/11/28 13:04:42;;;;;;;11.38;9.10;;;11.30;99.90;;;;;;5034272;28;20025;-77
2022/11/28 13:07:26;;;;;;;10.13;8.02;;;11.30;99.90;;;;;;5034053;28;20033;-77
2022/11/28 13:10:23;;;;;;;9.98;7.90;;;11.30;99.90;;;;;;5033466;28;20585;-76
2022/11/28 13:13:27;;;;;;;10.07;8.13;;;11.40;99.90;;;;;;5033768;28;20120;-77
2022/11/28 13:16:42;;;;;;;12.63;9.23;;;11.40;99.90;;;;;;5000145;28;20041;-76
2022/11/28 13:19:30;;;;;;;10.48;8.68;;;11.40;99.90;;;;;;5030855;28;20120;-76
2022/11/28 13:22:22;;;;;;;9.68;7.80;;;11.40;99.90;;;;;;5033717;28;20104;-76
2022/11/28 13:25:12;;;;;;;11.75;9.63;;;11.40;99.90;;;;;;5033723;28;20079;-76